Hauptseite
METAR-TAF:

METAR-TAF

Flughäfen :

Taschkent, Usbekistan

Flughafen Taschkent

Breite: 41-16N, Länge: 069-16E, Höhe: 489 m

Beobachtung

Neuester Wetterbericht von vor 42 Minuten, um 03:30 UTC
Wind 6 kt aus Süd/Südost, variierte zwischen Ost/Südost und Süd
Temperatur 20°C
Luftfeuchtigkeit 60%
Luftdruck 1015 hPa
Sichtweite: 7000 m

METAR: UTTT 260330Z 16006KT 120V190 7000 NSC 20/12 Q1015 R26R/CLRD70 NOSIG

Zeit: 09:12 (04:12 UTC)

Prognose

Neuester Wetterbericht von vor 5 Stunden und 12 Minuten, um 23:00 UTC
Gültige Prognose vom 26 um 00 UTC bis 26 um 24 UTC
Wind 10 kt aus Ost
Sichtweite: 7000 m
Zeitweise
vom 26 um 15 UTC bis 26 um 24 UTC
Wind 15 kt aus Südwest, Böen bis zu 25 kt
Sichtweite: 3000 m
Aufgelockert bewölkt in der Höhe von 6000 ft, Kumulonimbus.
Durchbrochene Bewölkung in der Höhe von 10000 ft

TAF: UTTT 252300Z 2600/2624 08010KT 7000 NSC TEMPO 2615/2624 23015G25KT 3000 -DS SCT060CB BKN100

Wetterbeobachtungen und Prognosen von mehr als 4000 Flughäfen (METAR und TAF Bericht).

Die verfügbaren Stationen werden durch gelbe und rote Markierungen auf der Karte dargestellt.

Führen Sie die Maus auf sie, um den Namen der Station zu sehen.

Darauf klicken, um die Beobachtung von Wetterbeobachtungen und Prognosen zu sehen.

Um die Karte zu ändern : klicken Sie auf den grünen Tasten mit einem schwarzen Kreuz Zum Vergrößern, auf den grünen Button mit einem Gedankenstrich zu verkleinern, oder auf die grünen Pfeile für benachbarte Karten.


METAR-TAF: